createdAt,value
2023-05-07T00:00:48.275Z,15.30
2023-05-07T00:03:16.388Z,15.30
2023-05-07T00:05:44.400Z,15.30
2023-05-07T00:08:13.605Z,15.30
2023-05-07T00:10:41.504Z,15.30
2023-05-07T00:13:11.819Z,15.30
2023-05-07T00:15:39.772Z,15.30
2023-05-07T00:18:07.806Z,15.30
2023-05-07T00:20:36.330Z,15.30
2023-05-07T00:23:04.367Z,15.30
2023-05-07T00:25:32.352Z,15.20
2023-05-07T00:28:04.569Z,15.30
2023-05-07T00:30:34.059Z,15.20
2023-05-07T00:33:02.243Z,15.20
2023-05-07T00:35:31.111Z,15.20
2023-05-07T00:38:00.164Z,15.20
2023-05-07T00:40:28.092Z,15.20
2023-05-07T00:42:59.226Z,15.20
2023-05-07T00:45:29.491Z,15.20
2023-05-07T00:48:01.612Z,15.20
2023-05-07T00:50:30.455Z,15.20
2023-05-07T00:52:59.081Z,15.20
2023-05-07T00:55:27.140Z,15.20
2023-05-07T00:57:55.350Z,15.10
2023-05-07T01:00:23.262Z,15.10
2023-05-07T01:02:51.240Z,15.10
2023-05-07T01:05:25.174Z,15.00
2023-05-07T01:07:55.626Z,15.00
2023-05-07T01:10:24.897Z,15.00
2023-05-07T01:12:53.794Z,15.00
2023-05-07T01:15:21.939Z,14.90
2023-05-07T01:17:51.027Z,14.90
2023-05-07T01:20:20.872Z,14.90
2023-05-07T01:22:50.915Z,14.90
2023-05-07T01:25:19.278Z,14.90
2023-05-07T01:27:47.492Z,14.90
2023-05-07T01:30:15.691Z,14.90
2023-05-07T01:32:49.856Z,14.90
2023-05-07T01:35:21.386Z,14.90
2023-05-07T01:37:51.667Z,14.90
2023-05-07T01:40:20.229Z,14.90
2023-05-07T01:42:49.174Z,14.90
2023-05-07T01:45:17.077Z,14.90
2023-05-07T01:47:45.885Z,14.90
2023-05-07T01:50:14.736Z,14.90
2023-05-07T01:52:43.122Z,14.90
2023-05-07T01:55:12.639Z,14.90
2023-05-07T01:57:40.976Z,14.90
2023-05-07T02:00:10.869Z,14.90
2023-05-07T02:02:39.986Z,14.90
2023-05-07T02:05:08.717Z,14.90
2023-05-07T02:07:36.789Z,14.80
2023-05-07T02:10:05.091Z,14.80
2023-05-07T02:12:34.401Z,14.80
2023-05-07T02:15:02.664Z,14.80
2023-05-07T02:17:32.689Z,14.80
2023-05-07T02:20:00.889Z,14.80
2023-05-07T02:22:28.799Z,14.80
2023-05-07T02:24:56.781Z,14.80
2023-05-07T02:27:24.677Z,14.70
2023-05-07T02:29:53.960Z,14.70
2023-05-07T02:32:21.837Z,14.70
2023-05-07T02:34:52.560Z,14.70
2023-05-07T02:37:20.486Z,14.70
2023-05-07T02:39:48.370Z,14.70
2023-05-07T02:42:17.598Z,14.60
2023-05-07T02:44:45.553Z,14.60
2023-05-07T02:47:17.208Z,14.60
2023-05-07T02:49:45.035Z,14.60
2023-05-07T02:52:12.871Z,14.60
2023-05-07T02:54:40.710Z,14.60
2023-05-07T02:57:08.644Z,14.60
2023-05-07T02:59:36.617Z,14.60
2023-05-07T03:02:04.534Z,14.60
2023-05-07T03:04:33.798Z,14.60
2023-05-07T03:07:01.662Z,14.60
2023-05-07T03:09:29.540Z,14.60
2023-05-07T03:11:58.212Z,14.60
2023-05-07T03:14:26.223Z,14.60
2023-05-07T03:16:54.137Z,14.60
2023-05-07T03:19:22.007Z,14.60
2023-05-07T03:21:51.238Z,14.60
2023-05-07T03:24:19.135Z,14.60
2023-05-07T03:26:47.087Z,14.60
2023-05-07T03:29:14.950Z,14.60
2023-05-07T03:31:42.963Z,14.50
2023-05-07T03:34:10.942Z,14.60
2023-05-07T03:36:38.855Z,14.50
2023-05-07T03:39:08.100Z,14.50
2023-05-07T03:41:36.524Z,14.50
2023-05-07T03:44:04.507Z,14.50
2023-05-07T03:46:33.829Z,14.50
2023-05-07T03:49:01.797Z,14.50
2023-05-07T03:51:29.654Z,14.50
2023-05-07T03:53:58.151Z,14.40
2023-05-07T03:56:28.789Z,14.40
2023-05-07T03:58:56.721Z,14.40
2023-05-07T04:01:24.626Z,14.40
2023-05-07T04:03:52.724Z,14.40
2023-05-07T04:06:20.677Z,14.30
2023-05-07T04:08:48.694Z,14.30
2023-05-07T04:11:16.612Z,14.30
2023-05-07T04:13:45.988Z,14.30
2023-05-07T04:16:13.961Z,14.30
2023-05-07T04:18:41.989Z,14.30
2023-05-07T04:21:16.763Z,14.30
2023-05-07T04:23:44.828Z,14.40
2023-05-07T04:26:12.755Z,14.40
2023-05-07T04:28:41.256Z,14.40
2023-05-07T04:31:10.668Z,14.40
2023-05-07T04:33:38.598Z,14.40
2023-05-07T04:36:06.877Z,14.50
2023-05-07T04:38:34.835Z,14.50
2023-05-07T04:41:06.087Z,14.60
2023-05-07T04:43:34.305Z,14.60
2023-05-07T04:46:02.364Z,14.60
2023-05-07T04:48:31.655Z,14.70
2023-05-07T04:50:59.625Z,14.70
2023-05-07T04:53:27.508Z,14.70
2023-05-07T04:55:58.558Z,14.80
2023-05-07T04:58:26.623Z,14.80
2023-05-07T05:00:54.460Z,14.90
2023-05-07T05:03:22.423Z,14.90
2023-05-07T05:05:53.749Z,14.90
2023-05-07T05:08:21.751Z,15.00
2023-05-07T05:10:50.998Z,15.10
2023-05-07T05:13:19.234Z,15.10
2023-05-07T05:15:47.576Z,15.10
2023-05-07T05:18:15.503Z,15.20
2023-05-07T05:20:43.401Z,15.30
2023-05-07T05:23:13.076Z,15.30
2023-05-07T05:25:41.332Z,15.40
2023-05-07T05:28:09.351Z,15.40
2023-05-07T05:30:37.420Z,15.50
2023-05-07T05:33:05.477Z,15.50
2023-05-07T05:35:33.630Z,15.60
2023-05-07T05:38:01.631Z,15.70
2023-05-07T05:40:31.080Z,15.80
2023-05-07T05:42:59.136Z,15.80
2023-05-07T05:45:27.456Z,15.90
2023-05-07T05:47:55.434Z,16.00
2023-05-07T05:50:23.477Z,16.10
2023-05-07T05:52:51.870Z,16.20
2023-05-07T05:55:19.720Z,16.20
2023-05-07T05:57:49.256Z,16.30
2023-05-07T06:00:18.705Z,16.40
2023-05-07T06:02:46.945Z,16.40
2023-05-07T06:05:15.060Z,16.50
2023-05-07T06:07:42.997Z,16.50
2023-05-07T06:10:11.451Z,16.60
2023-05-07T06:12:39.866Z,16.70
2023-05-07T06:15:10.064Z,16.80
2023-05-07T06:17:37.947Z,16.90
2023-05-07T06:20:06.904Z,17.00
2023-05-07T06:22:34.878Z,17.10
2023-05-07T06:25:02.979Z,17.20
2023-05-07T06:27:30.932Z,17.30
2023-05-07T06:29:58.813Z,17.40
2023-05-07T06:32:28.082Z,17.50
2023-05-07T06:34:56.605Z,17.60
2023-05-07T06:37:24.581Z,17.70
2023-05-07T06:39:52.427Z,17.80
2023-05-07T06:42:20.439Z,17.90
2023-05-07T06:44:48.403Z,17.90
2023-05-07T06:47:16.689Z,18.00
2023-05-07T06:49:45.996Z,18.10
2023-05-07T06:52:13.825Z,18.20
2023-05-07T06:54:41.644Z,18.20
2023-05-07T06:57:09.540Z,18.20
2023-05-07T06:59:37.498Z,18.20
2023-05-07T07:02:05.604Z,18.20
2023-05-07T07:04:33.674Z,18.30
2023-05-07T07:07:03.002Z,18.30
2023-05-07T07:09:31.057Z,18.30
2023-05-07T07:11:58.922Z,18.40
2023-05-07T07:14:26.837Z,18.40
2023-05-07T07:16:55.015Z,18.50
2023-05-07T07:19:22.949Z,18.60
2023-05-07T07:21:50.781Z,18.60
2023-05-07T07:24:22.447Z,18.60
2023-05-07T07:26:50.585Z,18.70
2023-05-07T07:29:19.621Z,18.90
2023-05-07T07:31:47.587Z,19.00
2023-05-07T07:34:15.588Z,19.10
2023-05-07T07:36:46.519Z,19.30
2023-05-07T07:39:15.232Z,19.50
2023-05-07T07:41:44.463Z,19.70
2023-05-07T07:44:15.924Z,19.90
2023-05-07T07:46:44.482Z,20.00
2023-05-07T07:49:12.409Z,20.20
2023-05-07T07:51:40.423Z,20.30
2023-05-07T07:54:08.402Z,20.40
2023-05-07T07:56:36.653Z,20.50
2023-05-07T07:59:05.952Z,20.60
2023-05-07T08:01:34.085Z,20.60
2023-05-07T08:04:04.230Z,20.60
2023-05-07T08:06:32.256Z,20.60
2023-05-07T08:09:00.111Z,20.70
2023-05-07T08:11:28.301Z,20.70
2023-05-07T08:13:56.500Z,20.70
2023-05-07T08:16:26.151Z,20.70
2023-05-07T08:18:54.161Z,20.90
2023-05-07T08:21:22.193Z,20.90
2023-05-07T08:23:50.250Z,20.90
2023-05-07T08:26:18.202Z,20.90
2023-05-07T08:28:46.240Z,20.90
2023-05-07T08:31:14.244Z,20.80
2023-05-07T08:33:43.573Z,20.80
2023-05-07T08:36:11.612Z,20.60
2023-05-07T08:38:41.652Z,20.60
2023-05-07T08:41:12.166Z,20.50
2023-05-07T08:43:42.917Z,20.60
2023-05-07T08:46:12.471Z,20.80
2023-05-07T08:48:40.549Z,21.00
2023-05-07T08:51:14.478Z,21.30
2023-05-07T08:53:43.360Z,21.60
2023-05-07T08:56:11.720Z,22.00
2023-05-07T08:58:39.890Z,22.40
2023-05-07T09:01:10.522Z,22.80
2023-05-07T09:03:40.017Z,23.20
2023-05-07T09:06:09.317Z,23.60
2023-05-07T09:08:37.721Z,24.00
2023-05-07T09:11:06.041Z,24.40
2023-05-07T09:13:34.012Z,24.90
2023-05-07T09:16:13.078Z,25.30
2023-05-07T09:18:44.411Z,25.60
2023-05-07T09:21:16.738Z,26.20
2023-05-07T09:23:44.902Z,27.50
2023-05-07T09:26:13.586Z,29.10
2023-05-07T09:28:42.865Z,30.80
2023-05-07T09:31:11.946Z,32.50
2023-05-07T09:33:40.344Z,34.30
2023-05-07T09:36:10.094Z,35.80
2023-05-07T09:38:39.899Z,37.20
2023-05-07T09:41:09.576Z,38.40
2023-05-07T09:43:38.360Z,39.20
2023-05-07T09:46:09.745Z,40.10
2023-05-07T09:48:40.942Z,40.60
2023-05-07T09:51:19.115Z,40.90
2023-05-07T09:53:50.408Z,41.00
2023-05-07T09:56:19.778Z,40.50
2023-05-07T09:58:48.706Z,40.30
2023-05-07T10:01:20.269Z,40.30
2023-05-07T10:03:48.731Z,40.60
2023-05-07T10:06:17.414Z,40.10
2023-05-07T10:08:46.319Z,39.20
2023-05-07T10:11:16.695Z,38.20
2023-05-07T10:13:45.402Z,37.10
2023-05-07T10:16:13.862Z,36.30
2023-05-07T10:18:43.212Z,35.40
2023-05-07T10:21:15.281Z,34.70
2023-05-07T10:23:46.795Z,34.10
2023-05-07T10:26:17.204Z,34.60
2023-05-07T10:28:49.019Z,35.70
2023-05-07T10:31:29.889Z,36.30
2023-05-07T10:34:00.214Z,36.10
2023-05-07T10:36:28.885Z,35.80
2023-05-07T10:38:57.307Z,35.60
2023-05-07T10:41:26.653Z,35.00
2023-05-07T10:43:54.543Z,34.70
2023-05-07T10:46:24.336Z,34.40
2023-05-07T10:49:12.424Z,34.30
2023-05-07T10:51:41.135Z,34.40
2023-05-07T10:54:22.206Z,34.00
2023-05-07T10:56:52.172Z,33.70
2023-05-07T10:59:34.992Z,33.30
2023-05-07T11:02:05.202Z,33.00
2023-05-07T11:04:35.925Z,32.90
2023-05-07T11:07:37.355Z,33.20
2023-05-07T11:10:06.861Z,33.50
2023-05-07T11:12:55.748Z,33.70
2023-05-07T11:15:46.355Z,33.70
2023-05-07T11:18:15.552Z,33.70
2023-05-07T11:20:52.176Z,33.70
2023-05-07T11:24:09.012Z,33.30
2023-05-07T11:26:48.266Z,32.80
2023-05-07T11:29:21.837Z,32.50
2023-05-07T11:31:52.534Z,32.40
2023-05-07T11:34:24.616Z,32.10
2023-05-07T11:36:53.178Z,32.00
2023-05-07T11:39:31.507Z,31.70
2023-05-07T11:41:59.599Z,31.40
2023-05-07T11:44:43.191Z,31.10
2023-05-07T11:47:12.372Z,30.90
2023-05-07T11:49:41.582Z,30.80
2023-05-07T11:52:09.612Z,30.70
2023-05-07T11:54:39.818Z,30.50
2023-05-07T11:57:08.378Z,30.10
2023-05-07T11:59:42.344Z,29.70
2023-05-07T12:02:10.835Z,29.30
2023-05-07T12:04:40.471Z,28.90
2023-05-07T12:07:12.984Z,28.50
2023-05-07T12:09:41.004Z,28.10
2023-05-07T12:12:09.662Z,27.80
2023-05-07T12:14:42.099Z,27.60
2023-05-07T12:17:11.049Z,27.40
2023-05-07T12:19:40.531Z,27.20
2023-05-07T12:22:10.211Z,27.10
2023-05-07T12:24:46.458Z,27.00
2023-05-07T12:27:15.221Z,26.90
2023-05-07T12:29:48.457Z,26.80
2023-05-07T12:32:17.315Z,26.70
2023-05-07T12:34:45.978Z,26.60
2023-05-07T12:37:14.699Z,26.50
2023-05-07T12:39:46.958Z,26.30
2023-05-07T12:42:18.304Z,26.10
2023-05-07T12:44:49.041Z,26.00
2023-05-07T12:47:17.438Z,25.90
2023-05-07T12:49:46.823Z,25.80
2023-05-07T12:52:15.516Z,25.70
2023-05-07T12:54:43.573Z,25.60
2023-05-07T12:57:12.346Z,25.50
2023-05-07T12:59:41.948Z,25.40
2023-05-07T13:02:11.587Z,25.30
2023-05-07T13:04:39.563Z,25.30
2023-05-07T13:07:07.577Z,25.20
2023-05-07T13:09:35.816Z,25.20
2023-05-07T13:12:03.724Z,25.10
2023-05-07T13:14:31.603Z,25.10
2023-05-07T13:16:59.478Z,25.00
2023-05-07T13:19:29.751Z,25.00
2023-05-07T13:21:59.364Z,25.00
2023-05-07T13:24:27.323Z,25.00
2023-05-07T13:26:55.773Z,25.00
2023-05-07T13:29:29.572Z,25.00
2023-05-07T13:31:58.426Z,25.00
2023-05-07T13:34:27.717Z,25.00
2023-05-07T13:36:56.132Z,24.90
2023-05-07T13:39:24.116Z,24.80
2023-05-07T13:41:52.095Z,24.80
2023-05-07T13:44:20.101Z,24.80
2023-05-07T13:46:48.102Z,24.90
2023-05-07T13:49:16.129Z,24.90
2023-05-07T13:51:45.383Z,24.90
2023-05-07T13:54:13.307Z,25.00
2023-05-07T13:56:41.549Z,25.00
2023-05-07T13:59:09.470Z,25.10
2023-05-07T14:01:37.490Z,25.10
2023-05-07T14:04:05.876Z,25.10
2023-05-07T14:06:33.926Z,25.10
2023-05-07T14:09:03.198Z,25.00
2023-05-07T14:11:32.264Z,25.00
2023-05-07T14:14:01.281Z,24.90
2023-05-07T14:16:29.209Z,24.90
2023-05-07T14:18:58.825Z,24.90
2023-05-07T14:21:26.949Z,24.90
2023-05-07T14:23:54.861Z,24.80
2023-05-07T14:26:24.368Z,24.80
2023-05-07T14:28:52.292Z,24.70
2023-05-07T14:31:20.300Z,24.70
2023-05-07T14:33:48.231Z,24.50
2023-05-07T14:36:16.475Z,24.50
2023-05-07T14:38:44.496Z,24.30
2023-05-07T14:41:12.490Z,24.20
2023-05-07T14:43:41.768Z,24.10
2023-05-07T14:46:09.975Z,24.00
2023-05-07T14:48:37.840Z,23.80
2023-05-07T14:51:05.869Z,23.70
2023-05-07T14:53:33.876Z,23.70
2023-05-07T14:56:02.153Z,23.70
2023-05-07T14:58:30.105Z,23.70
2023-05-07T15:00:59.513Z,23.70
2023-05-07T15:03:27.525Z,23.70
2023-05-07T15:05:55.631Z,23.70
2023-05-07T15:08:23.599Z,23.70
2023-05-07T15:10:51.571Z,23.60
2023-05-07T15:13:19.523Z,23.40
2023-05-07T15:15:48.484Z,23.40
2023-05-07T15:18:17.896Z,23.30
2023-05-07T15:20:45.963Z,23.20
2023-05-07T15:23:14.990Z,23.20
2023-05-07T15:25:42.996Z,23.20
2023-05-07T15:28:10.917Z,23.20
2023-05-07T15:30:38.823Z,23.30
2023-05-07T15:33:06.794Z,23.30
2023-05-07T15:35:36.169Z,23.40
2023-05-07T15:38:05.013Z,23.40
2023-05-07T15:40:33.788Z,23.40
2023-05-07T15:43:01.883Z,23.40
2023-05-07T15:45:31.176Z,23.40
2023-05-07T15:47:59.260Z,23.30
2023-05-07T15:50:27.308Z,23.30
2023-05-07T15:52:56.513Z,23.30
2023-05-07T15:55:24.478Z,23.20
2023-05-07T15:57:55.029Z,23.20
2023-05-07T16:00:23.643Z,23.20
2023-05-07T16:02:51.986Z,23.20
2023-05-07T16:05:20.050Z,23.10
2023-05-07T16:07:48.547Z,23.20
2023-05-07T16:10:18.533Z,23.20
2023-05-07T16:12:46.527Z,23.20
2023-05-07T16:15:14.755Z,23.20
2023-05-07T16:17:42.799Z,23.00
2023-05-07T16:20:12.978Z,23.00
2023-05-07T16:22:40.910Z,23.00
2023-05-07T16:25:10.066Z,23.10
2023-05-07T16:27:39.471Z,23.00
2023-05-07T16:30:08.925Z,23.00
2023-05-07T16:32:37.191Z,23.00
2023-05-07T16:35:05.409Z,22.90
2023-05-07T16:37:34.214Z,22.90
2023-05-07T16:40:02.653Z,22.80
2023-05-07T16:42:30.570Z,22.80
2023-05-07T16:44:59.868Z,22.70
2023-05-07T16:47:27.903Z,22.70
2023-05-07T16:49:55.803Z,22.60
2023-05-07T16:52:23.918Z,22.50
2023-05-07T16:54:52.045Z,22.50
2023-05-07T16:57:19.892Z,22.30
2023-05-07T16:59:47.775Z,22.10
2023-05-07T17:02:17.002Z,22.00
2023-05-07T17:04:44.874Z,21.80
2023-05-07T17:07:13.106Z,21.80
2023-05-07T17:09:40.915Z,21.80
2023-05-07T17:12:08.934Z,21.80
2023-05-07T17:14:36.803Z,21.80
2023-05-07T17:17:04.757Z,21.60
2023-05-07T17:19:34.245Z,21.50
2023-05-07T17:22:02.109Z,21.40
2023-05-07T17:24:30.102Z,21.30
2023-05-07T17:26:58.074Z,21.20
2023-05-07T17:29:25.984Z,21.10
2023-05-07T17:31:53.894Z,21.00
2023-05-07T17:34:21.813Z,21.00
2023-05-07T17:36:51.142Z,20.90
2023-05-07T17:39:19.111Z,20.90
2023-05-07T17:41:47.301Z,20.80
2023-05-07T17:44:15.174Z,20.70
2023-05-07T17:46:43.117Z,20.70
2023-05-07T17:49:11.171Z,20.60
2023-05-07T17:51:50.339Z,20.50
2023-05-07T17:54:24.283Z,20.50
2023-05-07T17:56:52.504Z,20.40
2023-05-07T17:59:20.517Z,20.40
2023-05-07T18:01:48.531Z,20.30
2023-05-07T18:04:16.534Z,20.30
2023-05-07T18:06:44.510Z,20.20
2023-05-07T18:09:12.454Z,20.10
2023-05-07T18:11:41.813Z,20.10
2023-05-07T18:14:09.716Z,20.10
2023-05-07T18:16:37.796Z,20.00
2023-05-07T18:19:05.754Z,20.00
2023-05-07T18:21:33.714Z,20.00
2023-05-07T18:24:01.624Z,19.90
2023-05-07T18:26:29.460Z,19.90
2023-05-07T18:28:58.679Z,19.80
2023-05-07T18:31:26.629Z,19.80
2023-05-07T18:33:55.918Z,19.80
2023-05-07T18:36:24.972Z,19.70
2023-05-07T18:38:53.538Z,19.70
2023-05-07T18:41:21.588Z,19.60
2023-05-07T18:43:49.479Z,19.50
2023-05-07T18:46:18.905Z,19.50
2023-05-07T18:48:46.904Z,19.40
2023-05-07T18:51:14.843Z,19.40
2023-05-07T18:53:42.838Z,19.40
2023-05-07T18:56:10.815Z,19.30
2023-05-07T18:58:38.930Z,19.20
2023-05-07T19:01:08.666Z,19.20
2023-05-07T19:03:38.278Z,19.10
2023-05-07T19:06:06.619Z,19.00
2023-05-07T19:08:34.684Z,19.00
2023-05-07T19:11:03.100Z,18.90
2023-05-07T19:13:31.125Z,18.80
2023-05-07T19:15:59.105Z,18.80
2023-05-07T19:18:27.062Z,18.80
2023-05-07T19:20:56.353Z,18.70
2023-05-07T19:23:24.422Z,18.70
2023-05-07T19:25:52.396Z,18.60
2023-05-07T19:28:21.002Z,18.60
2023-05-07T19:30:49.816Z,18.50
2023-05-07T19:33:17.759Z,18.50
2023-05-07T19:35:45.884Z,18.50
2023-05-07T19:38:15.172Z,18.40
2023-05-07T19:40:43.132Z,18.40
2023-05-07T19:43:11.012Z,18.30
2023-05-07T19:45:42.745Z,18.30
2023-05-07T19:48:11.442Z,18.20
2023-05-07T19:50:39.356Z,18.10
2023-05-07T19:53:07.438Z,18.10
2023-05-07T19:55:37.073Z,18.00
2023-05-07T19:58:06.049Z,18.00
2023-05-07T20:00:33.928Z,18.00
2023-05-07T20:03:02.040Z,17.90
2023-05-07T20:05:30.148Z,17.80
2023-05-07T20:07:58.428Z,17.80
2023-05-07T20:10:26.355Z,17.80
2023-05-07T20:12:55.642Z,17.70
2023-05-07T20:15:23.865Z,17.70
2023-05-07T20:17:51.784Z,17.60
2023-05-07T20:20:19.902Z,17.60
2023-05-07T20:22:47.854Z,17.60
2023-05-07T20:25:15.839Z,17.50
2023-05-07T20:27:43.727Z,17.50
2023-05-07T20:30:14.552Z,17.50
2023-05-07T20:32:43.415Z,17.50
2023-05-07T20:35:11.662Z,17.50
2023-05-07T20:37:40.333Z,17.50
2023-05-07T20:40:09.438Z,17.40
2023-05-07T20:42:37.402Z,17.40
2023-05-07T20:45:06.253Z,17.40
2023-05-07T20:47:35.649Z,17.40
2023-05-07T20:50:03.746Z,17.40
2023-05-07T20:52:31.553Z,17.40
2023-05-07T20:54:59.532Z,17.40
2023-05-07T20:57:27.444Z,17.40
2023-05-07T20:59:55.430Z,17.40
2023-05-07T21:02:25.975Z,17.40
2023-05-07T21:04:55.283Z,17.40
2023-05-07T21:07:23.192Z,17.40
2023-05-07T21:09:51.077Z,17.40
2023-05-07T21:12:18.966Z,17.40
2023-05-07T21:14:46.865Z,17.40
2023-05-07T21:17:14.744Z,17.40
2023-05-07T21:19:43.208Z,17.40
2023-05-07T21:22:12.515Z,17.30
2023-05-07T21:24:41.220Z,17.30
2023-05-07T21:27:09.316Z,17.30
2023-05-07T21:29:37.209Z,17.20
2023-05-07T21:32:05.660Z,17.20
2023-05-07T21:34:33.694Z,17.20
2023-05-07T21:37:01.601Z,17.20
2023-05-07T21:39:30.930Z,17.10
2023-05-07T21:41:58.797Z,17.10
2023-05-07T21:44:29.301Z,17.10
2023-05-07T21:46:57.134Z,17.10
2023-05-07T21:49:24.980Z,17.00
2023-05-07T21:51:52.972Z,17.00
2023-05-07T21:54:21.251Z,16.90
2023-05-07T21:56:50.467Z,16.90
2023-05-07T21:59:18.426Z,16.90
2023-05-07T22:01:46.361Z,16.90
2023-05-07T22:04:14.225Z,16.90
2023-05-07T22:06:42.101Z,16.90
2023-05-07T22:09:10.646Z,16.90
2023-05-07T22:11:38.620Z,16.90
2023-05-07T22:14:07.854Z,16.80
2023-05-07T22:16:35.901Z,16.80
2023-05-07T22:19:03.959Z,16.80
2023-05-07T22:21:32.051Z,16.80
2023-05-07T22:23:59.990Z,16.80
2023-05-07T22:26:27.935Z,16.80
2023-05-07T22:28:55.819Z,16.70
2023-05-07T22:31:25.709Z,16.70
2023-05-07T22:33:53.715Z,16.70
2023-05-07T22:36:21.650Z,16.70
2023-05-07T22:38:49.678Z,16.80
2023-05-07T22:41:17.615Z,16.80
2023-05-07T22:43:45.560Z,16.80
2023-05-07T22:46:13.448Z,16.80
2023-05-07T22:48:42.745Z,16.80
2023-05-07T22:51:13.856Z,16.80
2023-05-07T22:53:41.693Z,16.80
2023-05-07T22:56:10.126Z,16.80
2023-05-07T22:58:37.953Z,16.80
2023-05-07T23:01:12.413Z,16.80
2023-05-07T23:03:41.734Z,16.80
2023-05-07T23:06:10.014Z,16.80
2023-05-07T23:08:37.973Z,16.80
2023-05-07T23:11:06.247Z,16.80
2023-05-07T23:13:34.275Z,16.80
2023-05-07T23:16:02.143Z,16.80
2023-05-07T23:18:30.265Z,16.80
2023-05-07T23:20:59.498Z,16.80
2023-05-07T23:23:33.455Z,16.80
2023-05-07T23:26:01.461Z,16.80
2023-05-07T23:28:29.433Z,16.80
2023-05-07T23:30:57.313Z,16.70
2023-05-07T23:33:25.145Z,16.70
2023-05-07T23:36:01.070Z,16.70
2023-05-07T23:38:29.014Z,16.70
2023-05-07T23:40:56.962Z,16.60
2023-05-07T23:43:24.959Z,16.60
2023-05-07T23:45:53.063Z,16.60
2023-05-07T23:48:21.001Z,16.60
2023-05-07T23:50:48.869Z,16.60
2023-05-07T23:53:18.118Z,16.50
2023-05-07T23:55:46.052Z,16.50
2023-05-07T23:58:14.013Z,16.50
